createdAt,value
2018-04-30T00:00:39.189Z,20.00
2018-04-30T00:03:07.443Z,20.00
2018-04-30T00:05:35.743Z,20.00
2018-04-30T00:08:04.022Z,20.00
2018-04-30T00:10:32.315Z,20.00
2018-04-30T00:13:00.590Z,20.00
2018-04-30T00:15:28.971Z,19.90
2018-04-30T00:17:57.167Z,19.90
2018-04-30T00:20:26.230Z,19.90
2018-04-30T00:22:54.506Z,19.80
2018-04-30T00:25:22.825Z,19.90
2018-04-30T00:27:51.827Z,19.80
2018-04-30T00:30:20.090Z,19.80
2018-04-30T00:32:48.343Z,19.70
2018-04-30T00:35:16.584Z,19.60
2018-04-30T00:37:44.857Z,19.60
2018-04-30T00:40:13.132Z,19.50
2018-04-30T00:42:41.381Z,19.40
2018-04-30T00:45:10.430Z,19.30
2018-04-30T00:47:38.696Z,19.30
2018-04-30T00:50:07.008Z,19.20
2018-04-30T00:52:35.335Z,19.20
2018-04-30T00:55:03.615Z,19.10
2018-04-30T00:57:31.917Z,19.10
2018-04-30T01:00:00.215Z,19.10
2018-04-30T01:02:28.463Z,19.10
2018-04-30T01:04:56.729Z,19.00
2018-04-30T01:07:24.980Z,18.90
2018-04-30T01:09:53.997Z,18.80
2018-04-30T01:12:22.283Z,18.80
2018-04-30T01:14:50.551Z,18.70
2018-04-30T01:17:18.796Z,18.70
2018-04-30T01:19:47.964Z,18.70
2018-04-30T01:22:16.240Z,18.60
2018-04-30T01:24:44.612Z,18.60
2018-04-30T01:27:12.868Z,18.60
2018-04-30T01:29:41.154Z,18.60
2018-04-30T01:32:09.393Z,18.60
2018-04-30T01:34:37.662Z,18.60
2018-04-30T01:37:06.684Z,18.50
2018-04-30T01:39:34.941Z,18.50
2018-04-30T01:42:03.219Z,18.50
2018-04-30T01:44:32.337Z,18.40
2018-04-30T01:47:00.631Z,18.40
2018-04-30T01:49:28.929Z,18.30
2018-04-30T01:51:57.176Z,18.20
2018-04-30T01:54:25.421Z,18.10
2018-04-30T01:56:53.729Z,18.10
2018-04-30T01:59:22.002Z,18.00
2018-04-30T02:01:50.300Z,17.90
2018-04-30T02:04:18.528Z,17.80
2018-04-30T02:06:46.813Z,17.80
2018-04-30T02:09:15.105Z,17.70
2018-04-30T02:11:43.360Z,17.60
2018-04-30T02:14:12.378Z,17.60
2018-04-30T02:16:40.630Z,17.60
2018-04-30T02:19:09.681Z,17.50
2018-04-30T02:21:37.940Z,17.50
2018-04-30T02:24:06.211Z,17.50
2018-04-30T02:26:34.519Z,17.40
2018-04-30T02:29:02.776Z,17.40
2018-04-30T02:31:31.041Z,17.40
2018-04-30T02:33:59.379Z,17.50
2018-04-30T02:36:27.634Z,17.50
2018-04-30T02:38:55.919Z,17.50
2018-04-30T02:41:24.251Z,17.40
2018-04-30T02:43:52.546Z,17.40
2018-04-30T02:46:20.827Z,17.40
2018-04-30T02:48:50.154Z,17.30
2018-04-30T02:51:18.392Z,17.30
2018-04-30T02:53:46.733Z,17.20
2018-04-30T02:56:15.749Z,17.10
2018-04-30T02:58:44.051Z,17.10
2018-04-30T03:01:12.291Z,17.00
2018-04-30T03:03:40.556Z,17.00
2018-04-30T03:06:09.606Z,16.80
2018-04-30T03:08:37.904Z,16.80
2018-04-30T03:11:06.143Z,16.80
2018-04-30T03:13:34.428Z,16.70
2018-04-30T03:16:02.711Z,16.70
2018-04-30T03:18:30.954Z,16.60
2018-04-30T03:20:59.257Z,16.50
2018-04-30T03:23:27.529Z,16.50
2018-04-30T03:25:55.835Z,16.50
2018-04-30T03:28:24.135Z,16.50
2018-04-30T03:30:53.291Z,16.40
2018-04-30T03:33:21.571Z,16.40
2018-04-30T03:35:49.819Z,16.40
2018-04-30T03:38:18.117Z,16.40
2018-04-30T03:40:46.371Z,16.40
2018-04-30T03:43:14.666Z,16.30
2018-04-30T03:45:42.909Z,16.30
2018-04-30T03:48:11.960Z,16.30
2018-04-30T03:50:40.224Z,16.30
2018-04-30T03:53:09.171Z,16.30
2018-04-30T03:55:38.252Z,16.10
2018-04-30T03:58:06.519Z,16.10
2018-04-30T04:00:46.765Z,16.00
2018-04-30T04:03:26.972Z,15.90
2018-04-30T04:06:08.470Z,15.90
2018-04-30T04:08:36.766Z,15.80
2018-04-30T04:11:05.066Z,15.90
2018-04-30T04:13:33.307Z,15.90
2018-04-30T04:16:01.580Z,15.80
2018-04-30T04:18:30.756Z,15.90
2018-04-30T04:20:59.815Z,15.70
2018-04-30T04:23:28.075Z,15.70
2018-04-30T04:25:56.343Z,15.70
2018-04-30T04:28:24.602Z,15.70
2018-04-30T04:30:52.864Z,15.70
2018-04-30T04:33:21.885Z,15.70
2018-04-30T04:35:50.156Z,15.60
2018-04-30T04:38:18.441Z,15.60
2018-04-30T04:40:46.724Z,15.60
2018-04-30T04:43:15.020Z,15.60
2018-04-30T04:45:43.260Z,15.50
2018-04-30T04:48:11.520Z,15.40
2018-04-30T04:50:39.761Z,15.30
2018-04-30T04:53:08.009Z,15.30
2018-04-30T04:55:36.312Z,15.20
2018-04-30T04:58:04.584Z,15.20
2018-04-30T05:00:32.837Z,15.20
2018-04-30T05:03:01.077Z,15.10
2018-04-30T05:05:30.114Z,15.10
2018-04-30T05:07:58.419Z,15.00
2018-04-30T05:10:26.672Z,15.10
2018-04-30T05:12:54.960Z,15.00
2018-04-30T05:15:23.250Z,14.90
2018-04-30T05:17:51.535Z,14.90
2018-04-30T05:20:19.875Z,14.80
2018-04-30T05:22:48.120Z,14.80
2018-04-30T05:25:16.380Z,14.80
2018-04-30T05:27:44.636Z,14.80
2018-04-30T05:30:12.884Z,14.80
2018-04-30T05:32:42.048Z,14.70
2018-04-30T05:35:10.331Z,14.70
2018-04-30T05:37:39.437Z,14.70
2018-04-30T05:40:13.806Z,14.70
2018-04-30T05:42:48.809Z,14.70
2018-04-30T05:45:23.211Z,14.60
2018-04-30T05:47:57.559Z,14.60
2018-04-30T05:50:31.856Z,14.60
2018-04-30T05:53:06.198Z,14.60
2018-04-30T05:55:40.379Z,14.70
2018-04-30T05:58:14.587Z,14.70
2018-04-30T06:00:48.770Z,14.70
2018-04-30T06:03:17.031Z,14.70
2018-04-30T06:05:46.180Z,14.70
2018-04-30T06:08:15.237Z,14.60
2018-04-30T06:10:43.526Z,14.60
2018-04-30T06:13:11.769Z,14.60
2018-04-30T06:15:40.075Z,14.50
2018-04-30T06:18:08.317Z,14.60
2018-04-30T06:20:36.567Z,14.50
2018-04-30T06:23:04.988Z,14.50
2018-04-30T06:25:33.248Z,14.60
2018-04-30T06:28:01.535Z,14.50
2018-04-30T06:30:29.798Z,14.50
2018-04-30T06:32:58.037Z,14.50
2018-04-30T06:35:27.090Z,14.40
2018-04-30T06:37:55.424Z,14.40
2018-04-30T06:40:24.564Z,14.40
2018-04-30T06:42:52.879Z,14.40
2018-04-30T06:45:21.928Z,14.40
2018-04-30T06:47:50.185Z,14.40
2018-04-30T06:50:18.421Z,14.40
2018-04-30T06:52:46.701Z,14.30
2018-04-30T06:55:15.074Z,14.20
2018-04-30T06:57:43.378Z,14.20
2018-04-30T07:00:12.427Z,14.00
2018-04-30T07:02:40.685Z,14.00
2018-04-30T07:05:08.983Z,14.00
2018-04-30T07:07:37.271Z,14.00
2018-04-30T07:10:05.553Z,13.90
2018-04-30T07:12:33.851Z,13.90
2018-04-30T07:15:03.377Z,13.80
2018-04-30T07:17:31.789Z,13.80
2018-04-30T07:20:00.124Z,13.80
2018-04-30T07:22:28.398Z,13.70
2018-04-30T07:24:57.411Z,13.50
2018-04-30T07:27:26.499Z,13.50
2018-04-30T07:29:55.543Z,13.40
2018-04-30T07:32:23.826Z,13.40
2018-04-30T07:34:52.123Z,13.30
2018-04-30T07:37:20.480Z,13.40
2018-04-30T07:39:48.768Z,13.30
2018-04-30T07:42:17.021Z,13.30
2018-04-30T07:44:45.268Z,13.30
2018-04-30T07:47:13.559Z,13.30
2018-04-30T07:49:41.815Z,13.20
2018-04-30T07:52:10.066Z,13.10
2018-04-30T07:54:38.360Z,13.00
2018-04-30T07:57:07.366Z,13.00
2018-04-30T07:59:35.618Z,13.00
2018-04-30T08:02:04.639Z,13.00
2018-04-30T08:04:32.941Z,13.00
2018-04-30T08:07:01.195Z,13.10
2018-04-30T08:09:29.492Z,13.20
2018-04-30T08:11:57.757Z,13.20
2018-04-30T08:14:26.063Z,13.20
2018-04-30T08:16:54.331Z,13.20
2018-04-30T08:19:22.582Z,13.30
2018-04-30T08:21:50.912Z,13.30
2018-04-30T08:24:19.174Z,13.30
2018-04-30T08:26:47.432Z,13.20
2018-04-30T08:29:15.715Z,13.30
2018-04-30T08:31:43.967Z,13.30
2018-04-30T08:34:12.250Z,13.30
2018-04-30T08:36:40.627Z,13.40
2018-04-30T08:39:08.842Z,13.30
2018-04-30T08:41:37.150Z,13.30
2018-04-30T08:44:05.409Z,13.30
2018-04-30T08:46:33.708Z,13.30
2018-04-30T08:49:02.761Z,13.50
2018-04-30T08:51:31.059Z,13.50
2018-04-30T08:53:59.351Z,13.50
2018-04-30T08:56:27.654Z,13.60
2018-04-30T08:58:56.712Z,13.80
2018-04-30T09:01:24.971Z,13.80
2018-04-30T09:03:54.015Z,13.90
2018-04-30T09:06:23.028Z,13.90
2018-04-30T09:08:51.339Z,13.90
2018-04-30T09:11:19.604Z,13.80
2018-04-30T09:13:47.865Z,13.90
2018-04-30T09:16:16.125Z,14.00
2018-04-30T09:18:44.437Z,14.20
2018-04-30T09:21:12.783Z,14.40
2018-04-30T09:32:41.536Z,26.30
2018-04-30T09:35:09.833Z,26.30
2018-04-30T09:37:38.127Z,26.50
2018-04-30T09:44:39.465Z,26.60
2018-04-30T09:47:07.741Z,26.60
2018-04-30T09:50:10.461Z,26.50
2018-04-30T09:58:43.719Z,24.40
2018-04-30T10:01:11.957Z,24.30
2018-04-30T10:03:40.275Z,22.50
2018-04-30T10:06:09.326Z,20.50
2018-04-30T10:08:37.634Z,20.40
2018-04-30T10:11:05.922Z,19.90
2018-04-30T10:13:34.163Z,19.60
2018-04-30T10:16:02.471Z,19.30
2018-04-30T10:18:30.739Z,18.80
2018-04-30T10:20:59.004Z,18.40
2018-04-30T10:23:27.371Z,18.00
2018-04-30T10:25:56.351Z,17.50
2018-04-30T10:28:24.639Z,17.50
2018-04-30T10:30:52.920Z,17.40
2018-04-30T10:33:21.182Z,17.20
2018-04-30T10:35:49.481Z,17.10
2018-04-30T10:38:17.728Z,17.20
2018-04-30T10:40:46.000Z,17.30
2018-04-30T10:43:14.266Z,17.50
2018-04-30T10:45:42.586Z,17.60
2018-04-30T10:48:10.851Z,17.80
2018-04-30T10:50:39.162Z,17.90
2018-04-30T10:53:07.438Z,18.10
2018-04-30T10:55:35.703Z,18.10
2018-04-30T10:58:03.943Z,18.10
2018-04-30T11:00:32.244Z,18.10
2018-04-30T11:03:00.500Z,18.20
2018-04-30T11:05:28.787Z,18.40
2018-04-30T11:07:57.099Z,18.80
2018-04-30T11:10:25.424Z,19.00
2018-04-30T11:12:53.725Z,19.30
2018-04-30T11:15:22.041Z,19.40
2018-04-30T11:17:50.289Z,19.60
2018-04-30T11:20:18.596Z,19.70
2018-04-30T11:22:46.899Z,19.90
2018-04-30T11:25:15.938Z,20.10
2018-04-30T11:27:44.256Z,20.10
2018-04-30T11:30:12.547Z,20.20
2018-04-30T11:32:41.614Z,20.50
2018-04-30T11:35:09.854Z,20.50
2018-04-30T11:37:38.156Z,20.70
2018-04-30T11:40:06.471Z,20.90
2018-04-30T11:42:34.732Z,21.10
2018-04-30T11:45:02.996Z,21.30
2018-04-30T11:47:31.250Z,21.50
2018-04-30T11:50:00.283Z,21.70
2018-04-30T11:52:29.342Z,21.90
2018-04-30T11:54:57.651Z,21.90
2018-04-30T11:57:25.942Z,22.10
2018-04-30T11:59:54.990Z,22.50
2018-04-30T12:02:24.889Z,22.70
2018-04-30T12:04:53.107Z,22.70
2018-04-30T12:07:21.390Z,22.90
2018-04-30T12:09:49.675Z,23.10
2018-04-30T12:12:17.978Z,23.20
2018-04-30T12:14:46.295Z,23.20
2018-04-30T12:17:14.570Z,23.30
2018-04-30T12:19:42.876Z,23.50
2018-04-30T12:22:11.854Z,23.70
2018-04-30T12:24:40.882Z,24.00
2018-04-30T12:27:09.214Z,23.90
2018-04-30T12:29:37.517Z,24.00
2018-04-30T12:32:12.630Z,23.80
2018-04-30T12:34:40.927Z,23.70
2018-04-30T12:37:09.197Z,23.70
2018-04-30T12:39:37.522Z,23.60
2018-04-30T12:42:06.586Z,23.50
2018-04-30T12:44:34.871Z,23.50
2018-04-30T12:47:03.183Z,23.40
2018-04-30T12:49:31.491Z,23.30
2018-04-30T12:51:59.753Z,23.30
2018-04-30T12:54:28.019Z,23.20
2018-04-30T12:56:56.272Z,23.00
2018-04-30T12:59:25.295Z,22.90
2018-04-30T13:01:53.547Z,22.80
2018-04-30T13:04:22.627Z,23.00
2018-04-30T13:06:50.923Z,22.90
2018-04-30T13:09:19.223Z,23.00
2018-04-30T13:11:47.524Z,23.00
2018-04-30T13:14:15.858Z,23.20
2018-04-30T13:16:44.183Z,23.30
2018-04-30T13:19:12.427Z,23.40
2018-04-30T13:21:40.703Z,23.60
2018-04-30T13:24:09.733Z,23.90
2018-04-30T13:26:38.029Z,23.90
2018-04-30T13:29:06.288Z,23.90
2018-04-30T13:31:34.552Z,23.80
2018-04-30T13:34:02.789Z,23.70
2018-04-30T13:36:31.873Z,23.40
2018-04-30T13:39:01.608Z,23.20
2018-04-30T13:41:29.921Z,23.10
2018-04-30T13:43:58.162Z,23.20
2018-04-30T13:46:27.189Z,23.30
2018-04-30T13:48:55.479Z,23.20
2018-04-30T13:51:23.785Z,23.30
2018-04-30T13:53:52.034Z,23.60
2018-04-30T13:56:20.315Z,23.70
2018-04-30T13:58:48.635Z,23.70
2018-04-30T14:01:17.650Z,23.50
2018-04-30T14:03:45.907Z,23.40
2018-04-30T14:06:14.927Z,23.30
2018-04-30T14:08:43.226Z,23.20
2018-04-30T14:11:11.503Z,23.30
2018-04-30T14:13:39.794Z,23.30
2018-04-30T14:16:08.096Z,23.30
2018-04-30T14:18:36.343Z,23.30
2018-04-30T14:21:04.591Z,23.30
2018-04-30T14:23:32.903Z,23.40
2018-04-30T14:26:01.915Z,23.30
2018-04-30T14:28:30.230Z,23.30
2018-04-30T14:30:58.511Z,23.20
2018-04-30T14:33:26.764Z,23.10
2018-04-30T14:35:55.818Z,23.30
2018-04-30T14:38:24.158Z,23.30
2018-04-30T14:40:53.501Z,24.80
2018-04-30T14:43:21.776Z,24.70
2018-04-30T14:45:50.028Z,25.70
2018-04-30T14:48:18.276Z,26.30
2018-04-30T14:50:47.350Z,26.60
2018-04-30T14:53:15.651Z,26.60
2018-04-30T14:55:44.709Z,25.70
2018-04-30T14:58:12.989Z,25.70
2018-04-30T15:00:41.307Z,25.30
2018-04-30T15:03:10.377Z,24.50
2018-04-30T15:05:38.654Z,24.50
2018-04-30T15:08:06.929Z,24.30
2018-04-30T15:10:35.177Z,24.20
2018-04-30T15:13:03.444Z,24.30
2018-04-30T15:15:31.754Z,24.40
2018-04-30T15:18:00.017Z,24.50
2018-04-30T15:20:28.307Z,24.30
2018-04-30T15:22:57.451Z,24.10
2018-04-30T15:25:25.727Z,24.10
2018-04-30T15:27:54.046Z,24.10
2018-04-30T15:30:22.335Z,24.10
2018-04-30T15:32:51.330Z,24.10
2018-04-30T15:35:19.642Z,24.20
2018-04-30T15:37:48.722Z,24.30
2018-04-30T15:40:17.005Z,24.30
2018-04-30T15:42:46.050Z,24.30
2018-04-30T15:45:14.311Z,24.30
2018-04-30T15:47:42.624Z,24.40
2018-04-30T15:50:10.897Z,24.50
2018-04-30T15:52:39.132Z,24.60
2018-04-30T15:55:07.429Z,24.70
2018-04-30T15:57:35.714Z,24.70
2018-04-30T16:00:03.962Z,24.80
2018-04-30T16:02:32.263Z,24.70
2018-04-30T16:05:00.558Z,24.60
2018-04-30T16:07:28.801Z,24.60
2018-04-30T16:09:57.052Z,24.70
2018-04-30T16:12:26.179Z,24.80
2018-04-30T16:14:54.465Z,24.80
2018-04-30T16:17:22.729Z,24.80
2018-04-30T16:19:50.983Z,24.90
2018-04-30T16:22:20.041Z,24.80
2018-04-30T16:24:48.278Z,24.80
2018-04-30T16:27:16.593Z,24.70
2018-04-30T16:29:44.842Z,24.50
2018-04-30T16:32:13.080Z,24.20
2018-04-30T16:34:42.124Z,23.80
2018-04-30T16:37:10.417Z,23.80
2018-04-30T16:39:38.757Z,23.60
2018-04-30T16:42:06.968Z,23.40
2018-04-30T16:44:35.259Z,23.20
2018-04-30T16:47:03.516Z,23.00
2018-04-30T16:49:31.832Z,22.80
2018-04-30T16:52:00.120Z,22.60
2018-04-30T16:54:29.213Z,22.10
2018-04-30T16:56:58.986Z,22.00
2018-04-30T16:59:28.234Z,22.00
2018-04-30T17:01:57.265Z,21.70
2018-04-30T17:04:25.768Z,21.70
2018-04-30T17:06:54.040Z,21.50
2018-04-30T17:09:22.305Z,21.40
2018-04-30T17:11:50.631Z,21.20
2018-04-30T17:14:19.980Z,21.00
2018-04-30T17:16:48.287Z,20.80
2018-04-30T17:19:16.623Z,20.60
2018-04-30T17:21:44.900Z,20.40
2018-04-30T17:24:13.211Z,20.30
2018-04-30T17:26:41.489Z,20.10
2018-04-30T17:29:09.842Z,19.90
2018-04-30T17:31:38.104Z,19.80
2018-04-30T17:34:06.442Z,19.70
2018-04-30T17:36:34.738Z,19.60
2018-04-30T17:39:03.039Z,19.40
2018-04-30T17:41:31.371Z,19.20
2018-04-30T17:43:59.693Z,19.00
2018-04-30T17:46:27.959Z,18.80
2018-04-30T17:48:57.027Z,18.60
2018-04-30T17:51:26.111Z,18.60
2018-04-30T17:53:54.360Z,18.60
2018-04-30T17:56:22.658Z,18.50
2018-04-30T17:58:51.067Z,18.40
2018-04-30T18:01:20.159Z,18.00
2018-04-30T18:03:48.570Z,18.00
2018-04-30T18:06:16.893Z,17.90
2018-04-30T18:08:45.182Z,17.80
2018-04-30T18:11:14.251Z,17.70
2018-04-30T18:13:42.528Z,17.60
2018-04-30T18:16:10.802Z,17.50
2018-04-30T18:18:39.086Z,17.40
2018-04-30T18:21:07.334Z,17.20
2018-04-30T18:23:35.689Z,17.00
2018-04-30T18:26:03.958Z,16.90
2018-04-30T18:28:32.994Z,16.80
2018-04-30T18:31:01.396Z,16.80
2018-04-30T18:33:29.683Z,16.80
2018-04-30T18:35:57.970Z,16.80
2018-04-30T18:38:26.296Z,16.80
2018-04-30T18:40:54.616Z,16.80
2018-04-30T18:43:22.920Z,16.80
2018-04-30T18:45:52.662Z,16.70
2018-04-30T18:48:20.919Z,16.70
2018-04-30T18:50:49.943Z,16.60
2018-04-30T18:53:18.204Z,16.60
2018-04-30T18:55:46.471Z,16.60
2018-04-30T18:58:15.541Z,16.60
2018-04-30T19:00:43.919Z,16.70
2018-04-30T19:03:12.190Z,16.70
2018-04-30T19:05:40.457Z,16.60
2018-04-30T19:08:08.851Z,16.60
2018-04-30T19:10:37.080Z,16.50
2018-04-30T19:13:05.351Z,16.50
2018-04-30T19:15:33.639Z,16.40
2018-04-30T19:18:01.895Z,16.40
2018-04-30T19:20:30.995Z,16.30
2018-04-30T19:23:00.057Z,16.30
2018-04-30T19:25:28.313Z,16.30
2018-04-30T19:27:56.624Z,16.30
2018-04-30T19:30:25.620Z,16.30
2018-04-30T19:32:54.708Z,16.30
2018-04-30T19:35:24.461Z,16.20
2018-04-30T19:37:52.749Z,16.20
2018-04-30T19:40:21.067Z,16.20
2018-04-30T19:42:49.379Z,16.20
2018-04-30T19:45:18.496Z,16.20
2018-04-30T19:47:46.811Z,16.20
2018-04-30T19:50:15.106Z,16.10
2018-04-30T19:52:43.423Z,16.10
2018-04-30T19:55:11.687Z,15.90
2018-04-30T19:57:40.745Z,15.90
2018-04-30T20:00:09.207Z,15.90
2018-04-30T20:02:37.460Z,15.90
2018-04-30T20:05:05.772Z,15.90
2018-04-30T20:07:34.067Z,15.90
2018-04-30T20:10:02.347Z,15.80
2018-04-30T20:12:30.642Z,15.80
2018-04-30T20:14:58.943Z,15.70
2018-04-30T20:17:27.261Z,15.70
2018-04-30T20:19:55.623Z,15.70
2018-04-30T20:22:23.935Z,15.60
2018-04-30T20:24:53.072Z,15.60
2018-04-30T20:27:21.383Z,15.60
2018-04-30T20:29:49.698Z,15.60
2018-04-30T20:32:17.997Z,15.60
2018-04-30T20:34:47.073Z,15.60
2018-04-30T20:37:16.094Z,15.50
2018-04-30T20:39:44.378Z,15.50
2018-04-30T20:42:13.461Z,15.60
2018-04-30T20:44:42.494Z,15.50
2018-04-30T20:47:10.828Z,15.50
2018-04-30T20:49:39.835Z,15.50
2018-04-30T20:52:08.098Z,15.40
2018-04-30T20:54:37.155Z,15.50
2018-04-30T20:57:05.432Z,15.50
2018-04-30T20:59:33.680Z,15.50
2018-04-30T21:02:01.973Z,15.40
2018-04-30T21:04:30.263Z,15.40
2018-04-30T21:06:58.521Z,15.40
2018-04-30T21:09:26.775Z,15.30
2018-04-30T21:11:55.036Z,15.30
2018-04-30T21:14:24.068Z,15.30
2018-04-30T21:16:52.322Z,15.20
2018-04-30T21:19:20.609Z,15.10
2018-04-30T21:21:48.860Z,15.20
2018-04-30T21:24:17.967Z,15.20
2018-04-30T21:26:46.208Z,15.20
2018-04-30T21:29:14.530Z,15.10
2018-04-30T21:31:42.768Z,15.10
2018-04-30T21:34:11.809Z,15.10
2018-04-30T21:36:40.060Z,15.00
2018-04-30T21:39:09.092Z,15.10
2018-04-30T21:41:37.399Z,15.00
2018-04-30T21:44:06.657Z,15.00
2018-04-30T21:46:34.910Z,15.10
2018-04-30T21:49:03.972Z,15.10
2018-04-30T21:51:32.279Z,15.10
2018-04-30T21:54:01.290Z,15.10
2018-04-30T21:56:29.610Z,15.00
2018-04-30T21:58:57.916Z,15.10
2018-04-30T22:01:26.168Z,15.10
2018-04-30T22:03:54.436Z,15.10
2018-04-30T22:06:22.715Z,15.00
2018-04-30T22:08:51.000Z,15.00
2018-04-30T22:11:19.260Z,15.00
2018-04-30T22:13:47.504Z,14.90
2018-04-30T22:16:15.772Z,14.80
2018-04-30T22:18:44.837Z,14.80
2018-04-30T22:21:13.150Z,14.80
2018-04-30T22:23:42.214Z,14.70
2018-04-30T22:26:10.492Z,14.70
2018-04-30T22:28:38.792Z,14.70
2018-04-30T22:31:07.845Z,14.70
2018-04-30T22:33:36.134Z,14.60
2018-04-30T22:36:04.409Z,14.60
2018-04-30T22:38:32.675Z,14.60
2018-04-30T22:41:00.929Z,14.60
2018-04-30T22:43:29.223Z,14.60
2018-04-30T22:45:57.511Z,14.60
2018-04-30T22:48:25.769Z,14.60
2018-04-30T22:50:54.032Z,14.60
2018-04-30T22:53:22.298Z,14.50
2018-04-30T22:55:50.547Z,14.50
2018-04-30T22:58:19.610Z,14.50
2018-04-30T23:00:47.912Z,14.50
2018-04-30T23:03:16.212Z,14.50
2018-04-30T23:05:45.229Z,14.40
2018-04-30T23:08:13.487Z,14.40
2018-04-30T23:10:42.554Z,14.40
2018-04-30T23:13:10.865Z,14.40
2018-04-30T23:15:39.937Z,14.40
2018-04-30T23:18:08.956Z,14.40
2018-04-30T23:20:37.262Z,14.30
2018-04-30T23:23:05.563Z,14.30
2018-04-30T23:25:33.850Z,14.30
2018-04-30T23:28:02.105Z,14.30
2018-04-30T23:30:30.350Z,14.20
2018-04-30T23:32:58.636Z,14.20
2018-04-30T23:35:26.931Z,14.20
2018-04-30T23:37:55.225Z,14.20
2018-04-30T23:40:23.502Z,14.20
2018-04-30T23:42:51.743Z,14.20
2018-04-30T23:45:20.056Z,14.20
2018-04-30T23:47:48.342Z,14.20
2018-04-30T23:50:16.618Z,14.20
2018-04-30T23:52:44.906Z,14.20
2018-04-30T23:55:13.226Z,14.20
2018-04-30T23:57:41.622Z,14.10
